Terminal Aerodrome Forecast
Issued by NWS Cleveland, OH

Home | Current Version | Previous Version | Graphics & Text | Print | Product List | Glossary On
Versions: 1 2 3 4 5 6 7 8 9 10 11 12 13 14 15 16 17 18 19 20 21 22 23 24 25
000
FTUS41 KCLE 010531
TAFYNG
TAF
KYNG 010531Z 0106/0206 02010G20KT 2SM -DZ BR OVC005
     FM010900 36008KT 3SM BR OVC008
     FM011800 03010KT P6SM OVC008
     FM012200 03010KT P6SM OVC019
     FM020000 03006KT P6SM BKN050 OVC250=

USA.gov is the U.S. government's official web portal to all federal, state and local government web resources and services.